WZZ4MN LGAV-EPGD
Flight info
| Callsign | WZZ4MN |
|---|---|
| Flight time | N/A |
| Altitude | 23000 |
| Route | KRO DCT NEVRA N137 SKP UL617 MAKED L617 RAXAD DCT PARAK DCT KEKED N133 KSC B7 LENOV N133 GRUDA Z95 OSLOG |
| Aircraft | A21N/M-SDE1E2E3FGIJ1J4RWXY/LB1 |
Departure
| Time | N/A |
|---|---|
| Airport | Athens Eleftherios Venizelos International Airport (LGAV) |
Arrival
| Time | 2026-05-06 18:18 |
|---|---|
| Airport | Gdańsk Lech Wałęsa Airport (EPGD) |
| Time | Latitude | Longitude | Altitude | Speed | Heading |
|---|---|---|---|---|---|
| 2026-05-06 15:29 | 38.41262 | 24.22546 | 25147 ft | 407 kts | 332° |
| 2026-05-06 15:29 | 38.43789 | 24.20904 | 25440 ft | 408 kts | 332° |
| 2026-05-06 15:29 | 38.46370 | 24.19286 | 25724 ft | 410 kts | 333° |
| 2026-05-06 15:30 | 38.48947 | 24.17750 | 25982 ft | 412 kts | 334° |
| 2026-05-06 15:30 | 38.51532 | 24.16218 | 26212 ft | 414 kts | 333° |
| 2026-05-06 15:30 | 38.54178 | 24.14642 | 26475 ft | 415 kts | 333° |
| 2026-05-06 15:30 | 38.56771 | 24.13088 | 26800 ft | 415 kts | 333° |
| 2026-05-06 15:31 | 38.59372 | 24.11525 | 27142 ft | 414 kts | 333° |
| 2026-05-06 15:31 | 38.61976 | 24.09953 | 27489 ft | 413 kts | 333° |
| 2026-05-06 15:31 | 38.64604 | 24.08440 | 27831 ft | 413 kts | 336° |
| 2026-05-06 15:32 | 38.69997 | 24.05943 | 28507 ft | 412 kts | 338° |
| 2026-05-06 15:32 | 38.72691 | 24.04728 | 28848 ft | 411 kts | 338° |
| 2026-05-06 15:32 | 38.75375 | 24.03503 | 29185 ft | 410 kts | 338° |
| 2026-05-06 15:32 | 38.78041 | 24.02274 | 29513 ft | 410 kts | 338° |
| 2026-05-06 15:33 | 38.80700 | 24.01040 | 29821 ft | 409 kts | 338° |
| 2026-05-06 15:33 | 38.83369 | 23.99795 | 30154 ft | 408 kts | 337° |
| 2026-05-06 15:33 | 38.86031 | 23.98548 | 30490 ft | 407 kts | 337° |
| 2026-05-06 15:33 | 38.88710 | 23.97289 | 30834 ft | 406 kts | 337° |
| 2026-05-06 15:34 | 38.91349 | 23.96047 | 31165 ft | 405 kts | 337° |
| 2026-05-06 15:34 | 38.93985 | 23.94805 | 31489 ft | 404 kts | 337° |
| 2026-05-06 15:34 | 38.96601 | 23.93569 | 31807 ft | 403 kts | 337° |
| 2026-05-06 15:34 | 38.99238 | 23.92323 | 32137 ft | 402 kts | 337° |
| 2026-05-06 15:35 | 39.01872 | 23.91076 | 32462 ft | 401 kts | 337° |
| 2026-05-06 15:35 | 39.04462 | 23.89850 | 32750 ft | 400 kts | 337° |
| 2026-05-06 15:35 | 39.07093 | 23.88604 | 33058 ft | 399 kts | 337° |
| 2026-05-06 15:35 | 39.09693 | 23.87371 | 33377 ft | 398 kts | 337° |
| 2026-05-06 15:36 | 39.12289 | 23.86140 | 33668 ft | 397 kts | 337° |
| 2026-05-06 15:36 | 39.14871 | 23.84913 | 33949 ft | 397 kts | 337° |
| 2026-05-06 15:36 | 39.17439 | 23.83693 | 34258 ft | 395 kts | 336° |
| 2026-05-06 15:36 | 39.19997 | 23.82476 | 34540 ft | 394 kts | 337° |
| 2026-05-06 15:37 | 39.22566 | 23.81253 | 34781 ft | 393 kts | 336° |
| 2026-05-06 15:37 | 39.25133 | 23.80029 | 34982 ft | 394 kts | 336° |
| 2026-05-06 15:37 | 39.27691 | 23.78808 | 35172 ft | 394 kts | 336° |
| 2026-05-06 15:37 | 39.30281 | 23.77570 | 35364 ft | 394 kts | 336° |
| 2026-05-06 15:38 | 39.32842 | 23.76347 | 35569 ft | 394 kts | 337° |
| 2026-05-06 15:38 | 39.35418 | 23.75115 | 35738 ft | 394 kts | 336° |
| 2026-05-06 15:38 | 39.37971 | 23.73894 | 35865 ft | 396 kts | 337° |
| 2026-05-06 15:38 | 39.40553 | 23.72656 | 35986 ft | 397 kts | 337° |
| 2026-05-06 15:39 | 39.45750 | 23.70166 | 36025 ft | 399 kts | 337° |
| 2026-05-06 15:39 | 39.50944 | 23.67674 | 36028 ft | 399 kts | 337° |
| 2026-05-06 15:40 | 39.56128 | 23.65182 | 36026 ft | 401 kts | 337° |
| 2026-05-06 15:40 | 39.61338 | 23.62674 | 36026 ft | 400 kts | 337° |
| 2026-05-06 15:41 | 39.66576 | 23.60148 | 36022 ft | 400 kts | 337° |
| 2026-05-06 15:41 | 39.71778 | 23.57634 | 36024 ft | 400 kts | 337° |
| 2026-05-06 15:42 | 39.76975 | 23.55120 | 36024 ft | 400 kts | 337° |
| 2026-05-06 15:42 | 39.82169 | 23.52602 | 36024 ft | 400 kts | 337° |
| 2026-05-06 15:43 | 39.87384 | 23.50074 | 36026 ft | 401 kts | 337° |
| 2026-05-06 15:43 | 39.92601 | 23.47539 | 36027 ft | 401 kts | 337° |
| 2026-05-06 15:44 | 39.97837 | 23.44988 | 36029 ft | 401 kts | 337° |
| 2026-05-06 15:44 | 40.03038 | 23.42452 | 36029 ft | 401 kts | 337° |
| 2026-05-06 15:45 | 40.08241 | 23.39908 | 36029 ft | 400 kts | 337° |
| 2026-05-06 15:45 | 40.13482 | 23.37345 | 36024 ft | 401 kts | 337° |
| 2026-05-06 15:46 | 40.18703 | 23.34784 | 36021 ft | 402 kts | 336° |
| 2026-05-06 15:46 | 40.23947 | 23.32209 | 36020 ft | 402 kts | 336° |
| 2026-05-06 15:47 | 40.29179 | 23.29637 | 36019 ft | 402 kts | 336° |
| 2026-05-06 15:47 | 40.34382 | 23.27072 | 36026 ft | 402 kts | 336° |
| 2026-05-06 15:48 | 40.39633 | 23.24480 | 36040 ft | 403 kts | 336° |
| 2026-05-06 15:48 | 40.44870 | 23.21892 | 36049 ft | 404 kts | 336° |
| 2026-05-06 15:49 | 40.50111 | 23.19297 | 36053 ft | 404 kts | 336° |
| 2026-05-06 15:49 | 40.55376 | 23.16685 | 36057 ft | 404 kts | 336° |
| 2026-05-06 15:50 | 40.60628 | 23.14077 | 36051 ft | 403 kts | 336° |
| 2026-05-06 15:50 | 40.65838 | 23.11483 | 36041 ft | 404 kts | 336° |
| 2026-05-06 15:51 | 40.71097 | 23.08859 | 36036 ft | 404 kts | 336° |
| 2026-05-06 15:51 | 40.76363 | 23.06230 | 36030 ft | 405 kts | 336° |
| 2026-05-06 15:52 | 40.81592 | 23.03616 | 36029 ft | 405 kts | 336° |
| 2026-05-06 15:52 | 40.86864 | 23.00974 | 36029 ft | 405 kts | 336° |
| 2026-05-06 15:53 | 40.92121 | 22.98336 | 36034 ft | 404 kts | 336° |
| 2026-05-06 15:53 | 40.97378 | 22.95696 | 36034 ft | 405 kts | 336° |
| 2026-05-06 15:54 | 41.02631 | 22.93053 | 36036 ft | 406 kts | 336° |
| 2026-05-06 15:54 | 41.07911 | 22.90392 | 36033 ft | 406 kts | 336° |
| 2026-05-06 15:55 | 41.13172 | 22.87734 | 36025 ft | 406 kts | 336° |
| 2026-05-06 15:55 | 41.18452 | 22.85061 | 36022 ft | 406 kts | 336° |
| 2026-05-06 15:56 | 41.23704 | 22.82396 | 36021 ft | 407 kts | 336° |
| 2026-05-06 15:56 | 41.29004 | 22.79703 | 36021 ft | 407 kts | 336° |
| 2026-05-06 15:57 | 41.34273 | 22.77019 | 35944 ft | 408 kts | 336° |
| 2026-05-06 15:57 | 41.39569 | 22.74316 | 36007 ft | 407 kts | 336° |
| 2026-05-06 15:58 | 41.44824 | 22.71632 | 36027 ft | 407 kts | 336° |
| 2026-05-06 15:58 | 41.50132 | 22.68918 | 36034 ft | 408 kts | 336° |
| 2026-05-06 15:59 | 41.55411 | 22.66212 | 36043 ft | 409 kts | 336° |
| 2026-05-06 15:59 | 41.60708 | 22.63493 | 36055 ft | 409 kts | 336° |
| 2026-05-06 16:00 | 41.63361 | 22.62130 | 36218 ft | 409 kts | 336° |
| 2026-05-06 16:00 | 41.65997 | 22.60774 | 36119 ft | 407 kts | 336° |
| 2026-05-06 16:00 | 41.71295 | 22.58044 | 36082 ft | 408 kts | 336° |
| 2026-05-06 16:01 | 41.76582 | 22.55314 | 36085 ft | 408 kts | 336° |
| 2026-05-06 16:01 | 41.79246 | 22.53937 | 35839 ft | 408 kts | 336° |
| 2026-05-06 16:01 | 41.81866 | 22.52583 | 35979 ft | 409 kts | 336° |
| 2026-05-06 16:02 | 41.87224 | 22.49808 | 36065 ft | 412 kts | 336° |
| 2026-05-06 16:02 | 41.92532 | 22.47055 | 36075 ft | 412 kts | 336° |
| 2026-05-06 16:03 | 41.97886 | 22.44270 | 36068 ft | 412 kts | 336° |
| 2026-05-06 16:03 | 42.03222 | 22.41493 | 36298 ft | 412 kts | 336° |
| 2026-05-06 16:04 | 42.05866 | 22.40116 | 36133 ft | 410 kts | 336° |
| 2026-05-06 16:04 | 42.08528 | 22.38726 | 36087 ft | 410 kts | 336° |
| 2026-05-06 16:04 | 42.11172 | 22.37345 | 35853 ft | 410 kts | 336° |
| 2026-05-06 16:04 | 42.13827 | 22.35957 | 35973 ft | 412 kts | 336° |
| 2026-05-06 16:05 | 42.19219 | 22.33131 | 36040 ft | 415 kts | 335° |
| 2026-05-06 16:05 | 42.24578 | 22.30321 | 36053 ft | 415 kts | 335° |
| 2026-05-06 16:06 | 42.29924 | 22.27513 | 36057 ft | 414 kts | 335° |
| 2026-05-06 16:06 | 42.35292 | 22.24687 | 36061 ft | 415 kts | 336° |
| 2026-05-06 16:07 | 42.40660 | 22.21854 | 36064 ft | 416 kts | 336° |
| 2026-05-06 16:07 | 42.46034 | 22.19014 | 36063 ft | 416 kts | 336° |
| 2026-05-06 16:08 | 42.51414 | 22.16165 | 36063 ft | 417 kts | 335° |
| 2026-05-06 16:08 | 42.56835 | 22.13289 | 36059 ft | 418 kts | 335° |
| 2026-05-06 16:09 | 42.62225 | 22.10424 | 36059 ft | 418 kts | 336° |
| 2026-05-06 16:09 | 42.67604 | 22.07561 | 36054 ft | 419 kts | 336° |
| 2026-05-06 16:10 | 42.73040 | 22.04660 | 36052 ft | 418 kts | 336° |
| 2026-05-06 16:10 | 42.78444 | 22.01774 | 36046 ft | 419 kts | 336° |
| 2026-05-06 16:11 | 42.81144 | 22.00329 | 36325 ft | 419 kts | 336° |
| 2026-05-06 16:11 | 42.83855 | 21.98878 | 36134 ft | 418 kts | 336° |
| 2026-05-06 16:11 | 42.89235 | 21.95992 | 36288 ft | 419 kts | 336° |
| 2026-05-06 16:12 | 42.91934 | 21.94544 | 36601 ft | 416 kts | 336° |
| 2026-05-06 16:12 | 42.94649 | 21.93085 | 36858 ft | 415 kts | 336° |
| 2026-05-06 16:12 | 42.97306 | 21.91656 | 36613 ft | 415 kts | 336° |
| 2026-05-06 16:12 | 42.99979 | 21.90215 | 36837 ft | 414 kts | 335° |
| 2026-05-06 16:13 | 43.02655 | 21.88773 | 36940 ft | 415 kts | 335° |
| 2026-05-06 16:13 | 43.05339 | 21.87323 | 36967 ft | 415 kts | 335° |
| 2026-05-06 16:13 | 43.10696 | 21.84428 | 36976 ft | 415 kts | 336° |
| 2026-05-06 16:14 | 43.13365 | 21.82983 | 37166 ft | 417 kts | 336° |
| 2026-05-06 16:14 | 43.16058 | 21.81525 | 37041 ft | 414 kts | 336° |
| 2026-05-06 16:14 | 43.21414 | 21.78621 | 36992 ft | 419 kts | 335° |
| 2026-05-06 16:15 | 43.26871 | 21.75653 | 36983 ft | 425 kts | 336° |
| 2026-05-06 16:15 | 43.32371 | 21.72659 | 36982 ft | 426 kts | 336° |
| 2026-05-06 16:16 | 43.37860 | 21.69665 | 36978 ft | 426 kts | 336° |
| 2026-05-06 16:16 | 43.43400 | 21.66637 | 36977 ft | 426 kts | 336° |
| 2026-05-06 16:17 | 43.48920 | 21.63615 | 36977 ft | 426 kts | 336° |
| 2026-05-06 16:17 | 43.54412 | 21.60602 | 36977 ft | 426 kts | 336° |
| 2026-05-06 16:18 | 43.59909 | 21.57579 | 37035 ft | 427 kts | 335° |
| 2026-05-06 16:18 | 43.65411 | 21.54548 | 36987 ft | 427 kts | 335° |
| 2026-05-06 16:19 | 43.70892 | 21.51520 | 36977 ft | 426 kts | 335° |
| 2026-05-06 16:19 | 43.76393 | 21.48477 | 36966 ft | 427 kts | 336° |
| 2026-05-06 16:20 | 43.81894 | 21.45429 | 36968 ft | 427 kts | 336° |
| 2026-05-06 16:20 | 43.87410 | 21.42365 | 36963 ft | 427 kts | 336° |
| 2026-05-06 16:21 | 43.92910 | 21.39306 | 36682 ft | 426 kts | 335° |
| 2026-05-06 16:21 | 43.95675 | 21.37765 | 37023 ft | 427 kts | 335° |
| 2026-05-06 16:21 | 43.98400 | 21.36246 | 36979 ft | 427 kts | 335° |
| 2026-05-06 16:22 | 44.03937 | 21.33152 | 36952 ft | 428 kts | 335° |
| 2026-05-06 16:22 | 44.09456 | 21.30063 | 36953 ft | 428 kts | 335° |
| 2026-05-06 16:23 | 44.15002 | 21.26951 | 36958 ft | 427 kts | 334° |
| 2026-05-06 16:23 | 44.20468 | 21.23878 | 36956 ft | 427 kts | 335° |
| 2026-05-06 16:24 | 44.25974 | 21.20776 | 36958 ft | 428 kts | 334° |
| 2026-05-06 16:24 | 44.31476 | 21.17671 | 36956 ft | 428 kts | 334° |
| 2026-05-06 16:25 | 44.36974 | 21.14562 | 36957 ft | 428 kts | 334° |
| 2026-05-06 16:25 | 44.42480 | 21.11443 | 36955 ft | 428 kts | 334° |
| 2026-05-06 16:26 | 44.48012 | 21.08302 | 36952 ft | 427 kts | 334° |
| 2026-05-06 16:26 | 44.53510 | 21.05173 | 36946 ft | 428 kts | 334° |
| 2026-05-06 16:27 | 44.59011 | 21.02037 | 36936 ft | 428 kts | 334° |
| 2026-05-06 16:27 | 44.64522 | 20.98887 | 36931 ft | 428 kts | 334° |
| 2026-05-06 16:28 | 44.69993 | 20.95757 | 36927 ft | 428 kts | 334° |
| 2026-05-06 16:28 | 44.75489 | 20.92602 | 36922 ft | 428 kts | 334° |
| 2026-05-06 16:29 | 44.80996 | 20.89437 | 36920 ft | 428 kts | 334° |
| 2026-05-06 16:29 | 44.86514 | 20.86260 | 36918 ft | 428 kts | 334° |
| 2026-05-06 16:30 | 44.91079 | 20.83625 | 36915 ft | 429 kts | 334° |
| 2026-05-06 16:30 | 44.97517 | 20.79901 | 36917 ft | 429 kts | 334° |
| 2026-05-06 16:31 | 45.03023 | 20.76708 | 36912 ft | 430 kts | 334° |
| 2026-05-06 16:31 | 45.08516 | 20.73518 | 36911 ft | 430 kts | 334° |
| 2026-05-06 16:32 | 45.14028 | 20.70308 | 36912 ft | 429 kts | 334° |
| 2026-05-06 16:32 | 45.19539 | 20.67093 | 36913 ft | 430 kts | 334° |
| 2026-05-06 16:33 | 45.25098 | 20.63857 | 36909 ft | 432 kts | 336° |
| 2026-05-06 16:34 | 45.34096 | 20.62179 | 36908 ft | 451 kts | 1° |
| 2026-05-06 16:34 | 45.40338 | 20.63266 | 36912 ft | 454 kts | 4° |
| 2026-05-06 16:35 | 45.46587 | 20.64544 | 36911 ft | 453 kts | 4° |
| 2026-05-06 16:35 | 45.52822 | 20.65812 | 36908 ft | 454 kts | 4° |
| 2026-05-06 16:36 | 45.59060 | 20.67070 | 36910 ft | 453 kts | 4° |
| 2026-05-06 16:36 | 45.65257 | 20.68315 | 36909 ft | 454 kts | 4° |
| 2026-05-06 16:37 | 45.71536 | 20.69580 | 36907 ft | 454 kts | 4° |
| 2026-05-06 16:37 | 45.77786 | 20.70839 | 36908 ft | 454 kts | 4° |
| 2026-05-06 16:38 | 45.84033 | 20.72101 | 36909 ft | 454 kts | 4° |
| 2026-05-06 16:38 | 45.90247 | 20.73360 | 36909 ft | 454 kts | 4° |
| 2026-05-06 16:39 | 45.96505 | 20.74631 | 36911 ft | 454 kts | 4° |
| 2026-05-06 16:39 | 46.02703 | 20.75891 | 36913 ft | 453 kts | 4° |
| 2026-05-06 16:40 | 46.08974 | 20.77168 | 36911 ft | 454 kts | 4° |
| 2026-05-06 16:40 | 46.15192 | 20.78440 | 36914 ft | 454 kts | 4° |
| 2026-05-06 16:41 | 46.21428 | 20.79717 | 36912 ft | 453 kts | 4° |
| 2026-05-06 16:41 | 46.27661 | 20.80996 | 36547 ft | 454 kts | 4° |
| 2026-05-06 16:41 | 46.30740 | 20.81630 | 36771 ft | 452 kts | 4° |
| 2026-05-06 16:42 | 46.33882 | 20.82276 | 36874 ft | 454 kts | 4° |
| 2026-05-06 16:42 | 46.40129 | 20.83562 | 36901 ft | 455 kts | 4° |
| 2026-05-06 16:43 | 46.46351 | 20.84849 | 36909 ft | 455 kts | 4° |
| 2026-05-06 16:43 | 46.52623 | 20.86150 | 36905 ft | 455 kts | 4° |
| 2026-05-06 16:44 | 46.58880 | 20.87447 | 36900 ft | 456 kts | 4° |
| 2026-05-06 16:44 | 46.65147 | 20.88751 | 36902 ft | 456 kts | 4° |
| 2026-05-06 16:45 | 46.71387 | 20.90054 | 36897 ft | 455 kts | 4° |
| 2026-05-06 16:45 | 46.77654 | 20.91365 | 36897 ft | 455 kts | 4° |
| 2026-05-06 16:46 | 46.83883 | 20.92672 | 36895 ft | 454 kts | 4° |
| 2026-05-06 16:46 | 46.90102 | 20.93978 | 36899 ft | 454 kts | 4° |
| 2026-05-06 16:47 | 46.96358 | 20.95295 | 36896 ft | 454 kts | 3° |
| 2026-05-06 16:47 | 47.02608 | 20.96615 | 36897 ft | 454 kts | 3° |
| 2026-05-06 16:48 | 47.08871 | 20.97938 | 36890 ft | 455 kts | 3° |
| 2026-05-06 16:48 | 47.15115 | 20.99262 | 36892 ft | 455 kts | 3° |
| 2026-05-06 16:49 | 47.21313 | 21.00580 | 36900 ft | 454 kts | 3° |
| 2026-05-06 16:49 | 47.27568 | 21.01913 | 36904 ft | 453 kts | 3° |
| 2026-05-06 16:50 | 47.33768 | 21.03236 | 36907 ft | 453 kts | 3° |
| 2026-05-06 16:50 | 47.40004 | 21.04572 | 36906 ft | 454 kts | 3° |
| 2026-05-06 16:51 | 47.46226 | 21.05907 | 36902 ft | 454 kts | 3° |
| 2026-05-06 16:51 | 47.52488 | 21.07255 | 36907 ft | 454 kts | 3° |
| 2026-05-06 16:52 | 47.58691 | 21.08594 | 36899 ft | 453 kts | 3° |
| 2026-05-06 16:52 | 47.64932 | 21.09943 | 36888 ft | 453 kts | 3° |
| 2026-05-06 16:53 | 47.71136 | 21.11285 | 36889 ft | 453 kts | 3° |
| 2026-05-06 16:53 | 47.77344 | 21.12634 | 36882 ft | 453 kts | 3° |
| 2026-05-06 16:54 | 47.83569 | 21.13988 | 36888 ft | 453 kts | 3° |
| 2026-05-06 16:54 | 47.89810 | 21.15350 | 36887 ft | 453 kts | 2° |
| 2026-05-06 16:55 | 47.95996 | 21.16704 | 36885 ft | 453 kts | 2° |
| 2026-05-06 16:55 | 48.02224 | 21.18070 | 36880 ft | 452 kts | 2° |
| 2026-05-06 16:56 | 48.08443 | 21.19433 | 36892 ft | 452 kts | 3° |
| 2026-05-06 16:56 | 48.14651 | 21.20801 | 36901 ft | 452 kts | 3° |
| 2026-05-06 16:57 | 48.20873 | 21.22176 | 36906 ft | 453 kts | 3° |
| 2026-05-06 16:57 | 48.27113 | 21.23556 | 36909 ft | 453 kts | 3° |
| 2026-05-06 16:58 | 48.33329 | 21.24933 | 36903 ft | 454 kts | 3° |
| 2026-05-06 16:58 | 48.39558 | 21.26318 | 36901 ft | 455 kts | 3° |
| 2026-05-06 16:59 | 48.45790 | 21.27610 | 36900 ft | 453 kts | 0° |
| 2026-05-06 16:59 | 48.52037 | 21.28057 | 36892 ft | 449 kts | 354° |
| 2026-05-06 17:00 | 48.58246 | 21.27462 | 36892 ft | 445 kts | 348° |
| 2026-05-06 17:00 | 48.64279 | 21.25993 | 36887 ft | 442 kts | 344° |
| 2026-05-06 17:01 | 48.70290 | 21.24167 | 36892 ft | 441 kts | 342° |
| 2026-05-06 17:01 | 48.76270 | 21.22012 | 36896 ft | 441 kts | 341° |
| 2026-05-06 17:02 | 48.82203 | 21.19852 | 36897 ft | 442 kts | 341° |
| 2026-05-06 17:02 | 48.88169 | 21.17681 | 36897 ft | 442 kts | 341° |
| 2026-05-06 17:03 | 48.94141 | 21.15509 | 36903 ft | 442 kts | 341° |
| 2026-05-06 17:03 | 49.00120 | 21.13333 | 36897 ft | 442 kts | 341° |
| 2026-05-06 17:04 | 49.06081 | 21.11159 | 36899 ft | 442 kts | 341° |
| 2026-05-06 17:04 | 49.12040 | 21.08977 | 36907 ft | 442 kts | 341° |
| 2026-05-06 17:05 | 49.18016 | 21.06796 | 36908 ft | 443 kts | 341° |
| 2026-05-06 17:05 | 49.24013 | 21.04601 | 36909 ft | 444 kts | 341° |
| 2026-05-06 17:06 | 49.29980 | 21.02409 | 36908 ft | 444 kts | 341° |
| 2026-05-06 17:06 | 49.35901 | 20.99790 | 36904 ft | 441 kts | 336° |
| 2026-05-06 17:07 | 49.41682 | 20.96581 | 36896 ft | 441 kts | 334° |
| 2026-05-06 17:07 | 49.47385 | 20.93344 | 36881 ft | 441 kts | 334° |
| 2026-05-06 17:08 | 49.53156 | 20.90067 | 36879 ft | 441 kts | 334° |
| 2026-05-06 17:08 | 49.58879 | 20.86813 | 36868 ft | 441 kts | 334° |
| 2026-05-06 17:09 | 49.64625 | 20.83540 | 36858 ft | 442 kts | 334° |
| 2026-05-06 17:09 | 49.70391 | 20.80247 | 36836 ft | 443 kts | 334° |
| 2026-05-06 17:10 | 49.76168 | 20.76942 | 36831 ft | 444 kts | 334° |
| 2026-05-06 17:10 | 49.81935 | 20.73630 | 36827 ft | 444 kts | 334° |
| 2026-05-06 17:11 | 49.87707 | 20.70310 | 36830 ft | 444 kts | 334° |
| 2026-05-06 17:11 | 49.93481 | 20.66980 | 36814 ft | 445 kts | 334° |
| 2026-05-06 17:12 | 49.99289 | 20.63622 | 36821 ft | 445 kts | 334° |
| 2026-05-06 17:12 | 50.05093 | 20.60257 | 36821 ft | 446 kts | 334° |
| 2026-05-06 17:13 | 50.10900 | 20.56883 | 36813 ft | 447 kts | 334° |
| 2026-05-06 17:13 | 50.16713 | 20.53493 | 36819 ft | 448 kts | 334° |
| 2026-05-06 17:14 | 50.22561 | 20.50077 | 36825 ft | 448 kts | 334° |
| 2026-05-06 17:14 | 50.28378 | 20.46668 | 36815 ft | 448 kts | 334° |
| 2026-05-06 17:15 | 50.34172 | 20.43263 | 36812 ft | 448 kts | 334° |
| 2026-05-06 17:15 | 50.39986 | 20.39838 | 36812 ft | 448 kts | 334° |
| 2026-05-06 17:16 | 50.45823 | 20.36387 | 36809 ft | 449 kts | 334° |
| 2026-05-06 17:16 | 50.51635 | 20.32943 | 36803 ft | 449 kts | 333° |
| 2026-05-06 17:17 | 50.57434 | 20.29498 | 36797 ft | 448 kts | 333° |
| 2026-05-06 17:17 | 50.63279 | 20.26011 | 36798 ft | 449 kts | 334° |
| 2026-05-06 17:18 | 50.69238 | 20.22848 | 36794 ft | 452 kts | 336° |
| 2026-05-06 17:18 | 50.75214 | 20.19857 | 36791 ft | 452 kts | 336° |
| 2026-05-06 17:19 | 50.81167 | 20.16856 | 36793 ft | 452 kts | 336° |
| 2026-05-06 17:19 | 50.87151 | 20.13818 | 36787 ft | 452 kts | 336° |
| 2026-05-06 17:20 | 50.93121 | 20.10782 | 36791 ft | 453 kts | 336° |
| 2026-05-06 17:20 | 50.99123 | 20.07731 | 36796 ft | 453 kts | 336° |
| 2026-05-06 17:21 | 51.05098 | 20.04678 | 36799 ft | 453 kts | 336° |
| 2026-05-06 17:21 | 51.11028 | 20.01640 | 36788 ft | 454 kts | 336° |
| 2026-05-06 17:22 | 51.17129 | 19.98508 | 36789 ft | 454 kts | 336° |
| 2026-05-06 17:22 | 51.23121 | 19.95424 | 36796 ft | 454 kts | 336° |
| 2026-05-06 17:23 | 51.29137 | 19.92310 | 36797 ft | 454 kts | 336° |
| 2026-05-06 17:23 | 51.35137 | 19.89190 | 36784 ft | 454 kts | 336° |
| 2026-05-06 17:24 | 51.41102 | 19.86089 | 36782 ft | 455 kts | 336° |
| 2026-05-06 17:24 | 51.47131 | 19.82945 | 36787 ft | 455 kts | 336° |
| 2026-05-06 17:25 | 51.53138 | 19.79792 | 36782 ft | 457 kts | 336° |
| 2026-05-06 17:25 | 51.59129 | 19.76660 | 36777 ft | 458 kts | 336° |
| 2026-05-06 17:26 | 51.65161 | 19.73496 | 36772 ft | 458 kts | 336° |
| 2026-05-06 17:26 | 51.71227 | 19.70301 | 36773 ft | 458 kts | 336° |
| 2026-05-06 17:27 | 51.77277 | 19.67095 | 36763 ft | 458 kts | 336° |
| 2026-05-06 17:27 | 51.83294 | 19.63987 | 36759 ft | 459 kts | 338° |
| 2026-05-06 17:28 | 51.89405 | 19.61033 | 36754 ft | 460 kts | 338° |
| 2026-05-06 17:28 | 51.95553 | 19.58036 | 36747 ft | 461 kts | 338° |
| 2026-05-06 17:29 | 52.01673 | 19.55025 | 36749 ft | 463 kts | 338° |
| 2026-05-06 17:29 | 52.07830 | 19.51982 | 36746 ft | 464 kts | 338° |
| 2026-05-06 17:30 | 52.13966 | 19.48948 | 36743 ft | 464 kts | 338° |
| 2026-05-06 17:30 | 52.20171 | 19.45880 | 36738 ft | 464 kts | 338° |
| 2026-05-06 17:31 | 52.26349 | 19.42809 | 36731 ft | 464 kts | 338° |
| 2026-05-06 17:31 | 52.32509 | 19.39733 | 36729 ft | 464 kts | 338° |
| 2026-05-06 17:32 | 52.38653 | 19.36655 | 36745 ft | 464 kts | 338° |
| 2026-05-06 17:32 | 52.44808 | 19.33565 | 36537 ft | 459 kts | 337° |
| 2026-05-06 17:32 | 52.47816 | 19.31964 | 36104 ft | 456 kts | 334° |
| 2026-05-06 17:33 | 52.50792 | 19.30180 | 35760 ft | 459 kts | 333° |
| 2026-05-06 17:33 | 52.53772 | 19.28335 | 35490 ft | 463 kts | 333° |
| 2026-05-06 17:33 | 52.56773 | 19.26474 | 35220 ft | 464 kts | 333° |
| 2026-05-06 17:33 | 52.59776 | 19.24617 | 34971 ft | 465 kts | 333° |
| 2026-05-06 17:34 | 52.62831 | 19.22732 | 34759 ft | 467 kts | 333° |
| 2026-05-06 17:34 | 52.65859 | 19.20869 | 34504 ft | 467 kts | 333° |
| 2026-05-06 17:34 | 52.68905 | 19.18993 | 34240 ft | 468 kts | 333° |
| 2026-05-06 17:34 | 52.71925 | 19.17131 | 33982 ft | 469 kts | 333° |
| 2026-05-06 17:35 | 52.74980 | 19.15246 | 33721 ft | 469 kts | 333° |
| 2026-05-06 17:35 | 52.78023 | 19.13368 | 33460 ft | 470 kts | 333° |
| 2026-05-06 17:35 | 52.81053 | 19.11496 | 33197 ft | 471 kts | 333° |
| 2026-05-06 17:36 | 52.87197 | 19.07691 | 32676 ft | 471 kts | 333° |
| 2026-05-06 17:36 | 52.90214 | 19.05818 | 32418 ft | 471 kts | 333° |
| 2026-05-06 17:36 | 52.93291 | 19.03905 | 32155 ft | 472 kts | 333° |
| 2026-05-06 17:36 | 52.96353 | 19.01998 | 31659 ft | 473 kts | 333° |
| 2026-05-06 17:37 | 52.99441 | 19.00072 | 31111 ft | 475 kts | 332° |
| 2026-05-06 17:37 | 53.02525 | 18.98146 | 30515 ft | 477 kts | 332° |
| 2026-05-06 17:37 | 53.05631 | 18.96201 | 29904 ft | 478 kts | 332° |
| 2026-05-06 17:37 | 53.08745 | 18.94247 | 29282 ft | 479 kts | 333° |
| 2026-05-06 17:38 | 53.11801 | 18.92324 | 28671 ft | 480 kts | 333° |
| 2026-05-06 17:38 | 53.14936 | 18.90351 | 28060 ft | 481 kts | 333° |
| 2026-05-06 17:38 | 53.18074 | 18.88376 | 27404 ft | 482 kts | 333° |
| 2026-05-06 17:38 | 53.21193 | 18.86410 | 26710 ft | 479 kts | 333° |
| 2026-05-06 17:39 | 53.24266 | 18.84475 | 26032 ft | 473 kts | 333° |
| 2026-05-06 17:39 | 53.27302 | 18.82558 | 25345 ft | 468 kts | 334° |
| 2026-05-06 17:39 | 53.30344 | 18.80632 | 24654 ft | 464 kts | 334° |
| 2026-05-06 17:39 | 53.33318 | 18.78746 | 23916 ft | 462 kts | 334° |
| 2026-05-06 17:40 | 53.36333 | 18.76829 | 23131 ft | 460 kts | 334° |
| 2026-05-06 17:40 | 53.39267 | 18.74962 | 22365 ft | 453 kts | 334° |
| 2026-05-06 17:40 | 53.42157 | 18.73128 | 21583 ft | 436 kts | 334° |
| 2026-05-06 17:40 | 53.44921 | 18.71370 | 20885 ft | 426 kts | 334° |
| 2026-05-06 17:41 | 53.47684 | 18.69601 | 20288 ft | 422 kts | 334° |
| 2026-05-06 17:41 | 53.50375 | 18.67876 | 19685 ft | 418 kts | 334° |
| 2026-05-06 17:41 | 53.53075 | 18.66142 | 19078 ft | 416 kts | 334° |
| 2026-05-06 17:41 | 53.55764 | 18.64414 | 18488 ft | 413 kts | 334° |
| 2026-05-06 17:42 | 53.58416 | 18.62707 | 17975 ft | 408 kts | 334° |
| 2026-05-06 17:42 | 53.61026 | 18.61029 | 17522 ft | 403 kts | 334° |
| 2026-05-06 17:42 | 53.63641 | 18.59344 | 17048 ft | 399 kts | 334° |
| 2026-05-06 17:42 | 53.66216 | 18.57684 | 16560 ft | 396 kts | 335° |
| 2026-05-06 17:43 | 53.68756 | 18.56041 | 16089 ft | 392 kts | 334° |
| 2026-05-06 17:43 | 53.71295 | 18.54399 | 15613 ft | 389 kts | 335° |
| 2026-05-06 17:43 | 53.73799 | 18.52778 | 15142 ft | 386 kts | 335° |
| 2026-05-06 17:43 | 53.76299 | 18.51156 | 14660 ft | 383 kts | 335° |
| 2026-05-06 17:44 | 53.78777 | 18.49546 | 14173 ft | 380 kts | 335° |
| 2026-05-06 17:44 | 53.81218 | 18.47960 | 13731 ft | 377 kts | 334° |
| 2026-05-06 17:44 | 53.83640 | 18.46385 | 13244 ft | 375 kts | 334° |
| 2026-05-06 17:44 | 53.86084 | 18.44787 | 12737 ft | 387 kts | 334° |
| 2026-05-06 17:45 | 53.88616 | 18.43126 | 12266 ft | 396 kts | 335° |
| 2026-05-06 17:45 | 53.91172 | 18.41456 | 11737 ft | 395 kts | 335° |
| 2026-05-06 17:45 | 53.93752 | 18.39771 | 11091 ft | 394 kts | 335° |
| 2026-05-06 17:45 | 53.96264 | 18.38129 | 10464 ft | 392 kts | 335° |
| 2026-05-06 17:46 | 53.98786 | 18.36476 | 9805 ft | 390 kts | 335° |
| 2026-05-06 17:46 | 54.01292 | 18.34831 | 9412 ft | 382 kts | 334° |
| 2026-05-06 17:46 | 54.03733 | 18.33232 | 9379 ft | 364 kts | 334° |
| 2026-05-06 17:46 | 54.06013 | 18.31737 | 9378 ft | 346 kts | 334° |
| 2026-05-06 17:47 | 54.08199 | 18.30301 | 9375 ft | 328 kts | 334° |
| 2026-05-06 17:47 | 54.10285 | 18.28928 | 9320 ft | 311 kts | 333° |
| 2026-05-06 17:47 | 54.12241 | 18.27595 | 9006 ft | 295 kts | 330° |
| 2026-05-06 17:47 | 54.14033 | 18.26106 | 8665 ft | 286 kts | 327° |
| 2026-05-06 17:48 | 54.15778 | 18.24558 | 8309 ft | 279 kts | 327° |
| 2026-05-06 17:48 | 54.17483 | 18.23028 | 7954 ft | 274 kts | 327° |
| 2026-05-06 17:48 | 54.19167 | 18.21503 | 7595 ft | 269 kts | 327° |
| 2026-05-06 17:48 | 54.20785 | 18.20019 | 7212 ft | 265 kts | 327° |
| 2026-05-06 17:49 | 54.22390 | 18.18527 | 6816 ft | 262 kts | 327° |
| 2026-05-06 17:49 | 54.23970 | 18.17043 | 6558 ft | 255 kts | 327° |
| 2026-05-06 17:49 | 54.25511 | 18.15581 | 6319 ft | 248 kts | 327° |
| 2026-05-06 17:49 | 54.26997 | 18.14152 | 6099 ft | 242 kts | 327° |
| 2026-05-06 17:50 | 54.28422 | 18.12752 | 5974 ft | 237 kts | 327° |
| 2026-05-06 17:50 | 54.29818 | 18.11342 | 5844 ft | 230 kts | 327° |
| 2026-05-06 17:50 | 54.31187 | 18.09927 | 5712 ft | 228 kts | 327° |
| 2026-05-06 17:50 | 54.32536 | 18.08520 | 5585 ft | 229 kts | 327° |
| 2026-05-06 17:51 | 54.33891 | 18.07094 | 5453 ft | 229 kts | 327° |
| 2026-05-06 17:51 | 54.35246 | 18.05659 | 5329 ft | 229 kts | 327° |
| 2026-05-06 17:51 | 54.36592 | 18.04218 | 5196 ft | 229 kts | 327° |
| 2026-05-06 17:51 | 54.37928 | 18.02757 | 5070 ft | 227 kts | 327° |
| 2026-05-06 17:52 | 54.39234 | 18.01302 | 4924 ft | 217 kts | 327° |
| 2026-05-06 17:52 | 54.40485 | 18.00048 | 4823 ft | 202 kts | 341° |
| 2026-05-06 17:52 | 54.41798 | 18.00119 | 4729 ft | 189 kts | 20° |
| 2026-05-06 17:52 | 54.42793 | 18.01550 | 4568 ft | 189 kts | 57° |
| 2026-05-06 17:53 | 54.43215 | 18.03651 | 4404 ft | 189 kts | 72° |
| 2026-05-06 17:53 | 54.43546 | 18.05805 | 4221 ft | 182 kts | 72° |
| 2026-05-06 17:53 | 54.43863 | 18.07841 | 4043 ft | 172 kts | 72° |
| 2026-05-06 17:53 | 54.44172 | 18.09810 | 3889 ft | 170 kts | 72° |
| 2026-05-06 17:54 | 54.44482 | 18.11771 | 3788 ft | 168 kts | 72° |
| 2026-05-06 17:54 | 54.44786 | 18.13689 | 3654 ft | 166 kts | 72° |
| 2026-05-06 17:54 | 54.45021 | 18.15640 | 3519 ft | 168 kts | 84° |
| 2026-05-06 17:54 | 54.44862 | 18.17608 | 3398 ft | 171 kts | 103° |
| 2026-05-06 17:55 | 54.44426 | 18.19509 | 3283 ft | 168 kts | 107° |
| 2026-05-06 17:55 | 54.43967 | 18.21338 | 3189 ft | 168 kts | 107° |
| 2026-05-06 17:55 | 54.43509 | 18.23179 | 3001 ft | 169 kts | 107° |
| 2026-05-06 17:55 | 54.43052 | 18.25020 | 2802 ft | 165 kts | 107° |
| 2026-05-06 17:56 | 54.42615 | 18.26784 | 2603 ft | 158 kts | 105° |
| 2026-05-06 17:56 | 54.42193 | 18.28514 | 2483 ft | 156 kts | 104° |
| 2026-05-06 17:56 | 54.41772 | 18.30244 | 2488 ft | 157 kts | 105° |
| 2026-05-06 17:56 | 54.41351 | 18.31979 | 2279 ft | 157 kts | 105° |
| 2026-05-06 17:57 | 54.40932 | 18.33698 | 2048 ft | 151 kts | 104° |
| 2026-05-06 17:57 | 54.40538 | 18.35291 | 1821 ft | 140 kts | 103° |
| 2026-05-06 17:57 | 54.40172 | 18.36780 | 1579 ft | 133 kts | 103° |
| 2026-05-06 17:57 | 54.39823 | 18.38231 | 1364 ft | 132 kts | 103° |
| 2026-05-06 17:58 | 54.39474 | 18.39687 | 1163 ft | 133 kts | 103° |
| 2026-05-06 17:58 | 54.39116 | 18.41163 | 941 ft | 133 kts | 105° |
| 2026-05-06 17:58 | 54.38757 | 18.42641 | 902 ft | 141 kts | 107° |
| 2026-05-06 17:58 | 54.38351 | 18.44146 | 1583 ft | 141 kts | 105° |
| 2026-05-06 17:59 | 54.37946 | 18.45681 | 2273 ft | 147 kts | 105° |
| 2026-05-06 17:59 | 54.37523 | 18.47319 | 2812 ft | 159 kts | 106° |
| 2026-05-06 17:59 | 54.37091 | 18.49167 | 3090 ft | 177 kts | 106° |
| 2026-05-06 17:59 | 54.36556 | 18.51275 | 3003 ft | 208 kts | 109° |
| 2026-05-06 18:00 | 54.35915 | 18.53551 | 2968 ft | 225 kts | 112° |
| 2026-05-06 18:00 | 54.35171 | 18.56000 | 2903 ft | 235 kts | 113° |
| 2026-05-06 18:00 | 54.34399 | 18.58647 | 2957 ft | 258 kts | 110° |
| 2026-05-06 18:00 | 54.33640 | 18.61531 | 3364 ft | 270 kts | 110° |
| 2026-05-06 18:01 | 54.32890 | 18.64456 | 3825 ft | 269 kts | 111° |
| 2026-05-06 18:01 | 54.31868 | 18.67182 | 3966 ft | 276 kts | 138° |
| 2026-05-06 18:01 | 54.30254 | 18.68849 | 3968 ft | 267 kts | 167° |
| 2026-05-06 18:01 | 54.28445 | 18.69458 | 3983 ft | 273 kts | 174° |
| 2026-05-06 18:02 | 54.26537 | 18.69771 | 3983 ft | 275 kts | 178° |
| 2026-05-06 18:02 | 54.24623 | 18.70067 | 3981 ft | 275 kts | 177° |
| 2026-05-06 18:02 | 54.22749 | 18.70364 | 3978 ft | 272 kts | 178° |
| 2026-05-06 18:02 | 54.20866 | 18.70694 | 3977 ft | 270 kts | 178° |
| 2026-05-06 18:03 | 54.19014 | 18.71051 | 3976 ft | 267 kts | 178° |
| 2026-05-06 18:03 | 54.17168 | 18.71430 | 3969 ft | 265 kts | 177° |
| 2026-05-06 18:03 | 54.15342 | 18.71806 | 3962 ft | 262 kts | 177° |
| 2026-05-06 18:03 | 54.13573 | 18.72405 | 3948 ft | 265 kts | 161° |
| 2026-05-06 18:04 | 54.12058 | 18.74259 | 3950 ft | 275 kts | 131° |
| 2026-05-06 18:04 | 54.11124 | 18.77115 | 3972 ft | 280 kts | 115° |
| 2026-05-06 18:04 | 54.10435 | 18.80181 | 3962 ft | 279 kts | 112° |
| 2026-05-06 18:04 | 54.09777 | 18.83278 | 3958 ft | 279 kts | 112° |
| 2026-05-06 18:05 | 54.09119 | 18.86418 | 3960 ft | 280 kts | 112° |
| 2026-05-06 18:05 | 54.08472 | 18.89526 | 3957 ft | 279 kts | 112° |
| 2026-05-06 18:05 | 54.07837 | 18.92642 | 3950 ft | 279 kts | 112° |
| 2026-05-06 18:05 | 54.07355 | 18.95819 | 3933 ft | 282 kts | 94° |
| 2026-05-06 18:06 | 54.07811 | 18.99072 | 3940 ft | 284 kts | 60° |
| 2026-05-06 18:06 | 54.09143 | 19.01474 | 3946 ft | 281 kts | 26° |
| 2026-05-06 18:06 | 54.10965 | 19.02347 | 3948 ft | 271 kts | 354° |
| 2026-05-06 18:06 | 54.12795 | 19.01834 | 3966 ft | 267 kts | 342° |
| 2026-05-06 18:07 | 54.14595 | 19.01140 | 3954 ft | 264 kts | 344° |
| 2026-05-06 18:07 | 54.16351 | 19.00527 | 3945 ft | 249 kts | 344° |
| 2026-05-06 18:07 | 54.18000 | 18.99962 | 3942 ft | 240 kts | 343° |
| 2026-05-06 18:07 | 54.19620 | 18.99391 | 3947 ft | 231 kts | 343° |
| 2026-05-06 18:08 | 54.21149 | 18.98851 | 3947 ft | 222 kts | 343° |
| 2026-05-06 18:08 | 54.22643 | 18.98314 | 3964 ft | 220 kts | 343° |
| 2026-05-06 18:08 | 54.24096 | 18.97623 | 3958 ft | 213 kts | 326° |
| 2026-05-06 18:08 | 54.25167 | 18.96025 | 4027 ft | 194 kts | 304° |
| 2026-05-06 18:09 | 54.25829 | 18.94192 | 4005 ft | 174 kts | 295° |
| 2026-05-06 18:09 | 54.26364 | 18.92448 | 3953 ft | 155 kts | 293° |
| 2026-05-06 18:09 | 54.26830 | 18.90852 | 3950 ft | 150 kts | 292° |
| 2026-05-06 18:09 | 54.27275 | 18.89238 | 3962 ft | 149 kts | 292° |
| 2026-05-06 18:10 | 54.27708 | 18.87611 | 3968 ft | 150 kts | 291° |
| 2026-05-06 18:10 | 54.28124 | 18.85991 | 3963 ft | 150 kts | 290° |
| 2026-05-06 18:10 | 54.28534 | 18.84356 | 3964 ft | 150 kts | 289° |
| 2026-05-06 18:10 | 54.28995 | 18.82750 | 3954 ft | 152 kts | 304° |
| 2026-05-06 18:11 | 54.29923 | 18.81902 | 3939 ft | 162 kts | 351° |
| 2026-05-06 18:11 | 54.31029 | 18.82509 | 3957 ft | 175 kts | 38° |
| 2026-05-06 18:11 | 54.31628 | 18.84286 | 3959 ft | 178 kts | 84° |
| 2026-05-06 18:11 | 54.31390 | 18.86274 | 3964 ft | 171 kts | 131° |
| 2026-05-06 18:12 | 54.30454 | 18.87386 | 3973 ft | 162 kts | 177° |
| 2026-05-06 18:12 | 54.29432 | 18.87045 | 3988 ft | 149 kts | 223° |
| 2026-05-06 18:12 | 54.28930 | 18.85558 | 3999 ft | 148 kts | 262° |
| 2026-05-06 18:12 | 54.28959 | 18.83794 | 4009 ft | 151 kts | 276° |
| 2026-05-06 18:13 | 54.29161 | 18.82047 | 3982 ft | 150 kts | 282° |
| 2026-05-06 18:13 | 54.29466 | 18.80316 | 3976 ft | 150 kts | 288° |
| 2026-05-06 18:13 | 54.29859 | 18.78669 | 3975 ft | 150 kts | 293° |
| 2026-05-06 18:13 | 54.30278 | 18.77034 | 3967 ft | 152 kts | 296° |
| 2026-05-06 18:14 | 54.30703 | 18.75356 | 3800 ft | 153 kts | 294° |
| 2026-05-06 18:14 | 54.31114 | 18.73700 | 3586 ft | 149 kts | 292° |
| 2026-05-06 18:14 | 54.31509 | 18.72083 | 3384 ft | 148 kts | 294° |
| 2026-05-06 18:14 | 54.31905 | 18.70451 | 3182 ft | 148 kts | 295° |
| 2026-05-06 18:15 | 54.32299 | 18.68834 | 2977 ft | 149 kts | 295° |
| 2026-05-06 18:15 | 54.32701 | 18.67171 | 2776 ft | 152 kts | 298° |
| 2026-05-06 18:15 | 54.33115 | 18.65474 | 2572 ft | 155 kts | 298° |
| 2026-05-06 18:15 | 54.33532 | 18.63767 | 2355 ft | 158 kts | 298° |
| 2026-05-06 18:16 | 54.33957 | 18.62020 | 2139 ft | 160 kts | 300° |
| 2026-05-06 18:16 | 54.34387 | 18.60256 | 1917 ft | 162 kts | 301° |
| 2026-05-06 18:16 | 54.34818 | 18.58497 | 1706 ft | 154 kts | 301° |
| 2026-05-06 18:16 | 54.35222 | 18.56844 | 1485 ft | 149 kts | 301° |
| 2026-05-06 18:17 | 54.35634 | 18.55192 | 1282 ft | 153 kts | 300° |
| 2026-05-06 18:17 | 54.36045 | 18.53523 | 1071 ft | 153 kts | 300° |
| 2026-05-06 18:17 | 54.36458 | 18.51846 | 861 ft | 152 kts | 300° |
| 2026-05-06 18:17 | 54.36874 | 18.50178 | 661 ft | 153 kts | 300° |
| 2026-05-06 18:18 | 54.37284 | 18.48519 | 480 ft | 150 kts | 297° |
| 2026-05-06 18:18 | 54.37633 | 18.47114 | 448 ft | 88 kts | 293° |
| 2026-05-06 18:18 | 54.37819 | 18.46365 | 440 ft | 51 kts | 294° |
| 2026-05-06 18:18 | 54.37929 | 18.45970 | 442 ft | 28 kts | 307° |
| 2026-05-06 18:19 | 54.38026 | 18.45798 | 444 ft | 17 kts | 321° |
| 2026-05-06 18:19 | 54.38097 | 18.45708 | 445 ft | 7 kts | 333° |
| 2026-05-06 18:19 | 54.38141 | 18.45725 | 446 ft | 7 kts | 57° |
| 2026-05-06 18:19 | 54.38137 | 18.45803 | 446 ft | 6 kts | 115° |
| 2026-05-06 18:20 | 54.38117 | 18.45882 | 446 ft | 7 kts | 113° |
| 2026-05-06 18:20 | 54.38097 | 18.45963 | 447 ft | 8 kts | 113° |
| 2026-05-06 18:20 | 54.38065 | 18.46094 | 447 ft | 15 kts | 112° |
| 2026-05-06 18:20 | 54.38016 | 18.46290 | 447 ft | 20 kts | 113° |
| 2026-05-06 18:21 | 54.37961 | 18.46513 | 446 ft | 20 kts | 113° |
| 2026-05-06 18:21 | 54.37915 | 18.46701 | 447 ft | 9 kts | 114° |
| 2026-05-06 18:21 | 54.37904 | 18.46770 | 449 ft | 4 kts | 63° |
| 2026-05-06 18:21 | 54.37926 | 18.46795 | 449 ft | 4 kts | 24° |
| 2026-05-06 18:22 | 54.37960 | 18.46820 | 450 ft | 6 kts | 24° |
| 2026-05-06 18:22 | 54.38000 | 18.46849 | 451 ft | 3 kts | 23° |
| 2026-05-06 18:22 | 54.38003 | 18.46851 | 451 ft | 0 kts | 23° |